메인 페이지
METAR-TAF:

METAR-TAF

공항 :

산페드로술라, 온두라스

위도: 15-27N, 경도: 087-56W, 고도: 31m

현재 날씨관측

예보는 29분 전, 07:00시(UTC)에 발표되었습니다.
여러 방향의 바람 2kt
온도 24°C
습도 100%
기압 1008 hPa
시정 10km 이상
고도 2400ft 상공 구름 조금
고도 9000ft 상공 구름 많음

METAR: MHLM 210700Z VRB02KT 9999 FEW024 BKN090 24/24 Q1008 A2977 NOSIG

시각: 01:29 (07:29 UTC)

예보

예보는 2 시간 39분 전, 04:50시(UTC)에 발표되었습니다.
예보 대상 시간: 21일 06시부터 22일 06시까지 (UTC)
남서4kt
시정: 7000m
고도 500ft 상공 구름 조금
고도 2400ft 상공 구름 보통
고도 7000ft 상공 흐림
전환 중
21일 08시부터 21일 10시까지 (UTC)
시정 10km 이상
고도 2600ft 상공 구름 보통
고도 7000ft 상공 구름 많음
일시적
21일 17시부터 21일 19시까지 (UTC)
8kt
전환 중
22일 01시부터 22일 03시까지 (UTC)
여러 방향의 바람 4kt

TAF: MHLM 210450Z 2106/2206 22004KT 7000 RA FEW005 SCT024 OVC070 TX33/2120Z TN23/2112Z BECMG 2108/2110 9999 NSW SCT026 BKN070 TEMPO 2117/2119 19008KT BECMG 2201/2203 VRB04KT

4,000개 이상의 공항 관측 자료 및 예보 (METAR 및 TAF 보고).

지도상에서 검색 가능한 기상관측소가 노란 점과 빨간 점으로 표시되어 있습니다.

기상관측소 명을 보려면 표시 위로 마우스를 이동하세요.

날씨 관측과 예보를 보려면 클릭하세요.

지도 변경 : 확대하려면 엑스 표시가 있는 녹색 버튼, 축소하려면 빼기 표시가 있는 녹색 버튼, 다음 페이지의 지도를 보려면 녹색 화살표를 클릭하세요.


METAR-TAF: